Pink Coral — 9HPY9 — position and weather

sailwx.info

Track history (hours):
 
Tides and Currents Weather Stations Pressure Air Temp Water Temp Dewpoint Dewpoint Depression Visibility Wind Speed Wind Dir Waves Ship Positions

Pink Coral

Last reported at 2015-Apr-12 17:15 UTC. Time now 2015-Apr-21 11:41 UTC.
Position N 35°58' W 005°36'.
Warning: this ship's position is 8 days out of date.

Length 183 m; draft 12.2 m.

Type: Ship (hazmat cat A). MMSI: 249344000.

Date/timePositionNaut miles runAvg speedWind from/ knotsBaromVisibWave heightAir tempDewpointWater temp
2015-Apr-12 17:15N 35°58' W 005°36'912.7
2015-Apr-12 16:33N 36°00' W 005°26'9 9.4
2015-Apr-12 15:34N 36°07' W 005°18'0 0.4
2015-Apr-12 14:32N 36°08' W 005°18'0 0.1
2015-Apr-12 13:32N 36°08' W 005°18'4 4.0
2015-Apr-12 12:33N 36°05' W 005°21'0 0.4
2015-Apr-12 11:33N 36°04' W 005°21'8 8.4
2015-Apr-12 10:33N 36°05' W 005°11'37113.0
2015-Apr-11 06:05N 37°10' E 002°24'6712.0
2015-Apr-11 00:31N 37°19' E 003°47'9012.9
2015-Apr-10 17:30N 37°32' E 005°40'2613.5
2015-Apr-10 15:33N 37°35' E 006°13'1211.8
2015-Apr-10 14:32N 37°37' E 006°28'36412.2
2015-Apr-09 08:33N 36°33' E 013°57'1212.3
2015-Apr-09 07:33N 36°30' E 014°12'1212.3
2015-Apr-09 06:32N 36°26' E 014°27'  
2015-Apr-05 22:32N 40°53' E 028°37'1312.0
2015-Apr-05 21:27N 40°56' E 028°54'6 6.2
2015-Apr-05 20:34N 40°59' E 028°59'2010.2
2015-Apr-05 18:34N 41°19' E 029°07'1110.8
2015-Apr-05 17:33N 41°30' E 029°06'3 0.4
2015-Apr-05 11:05N 41°30' E 029°10'1 1.7
2015-Apr-05 10:11N 41°30' E 029°12'2 1.2
2015-Apr-05 08:23N 41°31' E 029°15'1 1.1
2015-Apr-05 07:20N 41°31' E 029°16'4 0.4
2015-Apr-04 20:31N 41°27' E 029°19'0 0.4
2015-Apr-04 19:31N 41°27' E 029°19'6 6.4
2015-Apr-04 18:33N 41°29' E 029°26'1010.4
2015-Apr-04 17:33N 41°33' E 029°39'36812.1
2015-Apr-03 11:07N 44°19' E 037°07'712.3
2015-Apr-03 10:33N 44°23' E 037°16'1211.9
2015-Apr-03 09:33N 44°28' E 037°30'1111.4
2015-Apr-03 08:33N 44°34' E 037°44'8 8.3
2015-Apr-03 07:33N 44°42' E 037°49'3 2.5
2015-Apr-03 06:31N 44°44' E 037°47'0 0.0
2015-Apr-03 05:31N 44°44' E 037°47'0 0.0
2015-Apr-03 04:31N 44°44' E 037°47'0 0.0
2015-Apr-03 03:31N 44°44' E 037°47'0 0.0
2015-Apr-03 02:31N 44°44' E 037°47'0 0.0
2015-Apr-03 01:28N 44°44' E 037°47'0 0.0
2015-Apr-03 00:31N 44°44' E 037°47'0 0.0
2015-Apr-02 23:31N 44°44' E 037°47'0 0.0
2015-Apr-02 22:31N 44°44' E 037°47'0 0.0
2015-Apr-02 21:31N 44°44' E 037°47'0 0.0
2015-Apr-02 20:31N 44°44' E 037°47'0 0.0
2015-Apr-02 19:34N 44°44' E 037°47'0 0.0
2015-Apr-02 17:31N 44°44' E 037°47'  
Track history (hours):
 
Tides and Currents Weather Stations Pressure Air Temp Water Temp Dewpoint Dewpoint Depression Visibility Wind Speed Wind Dir Waves Ship Positions

Pink Coral

Last reported at 2015-Apr-12 17:15 UTC. Time now 2015-Apr-21 11:41 UTC.
Position N 35°58' W 005°36'.
Warning: this ship's position is 8 days out of date.

Length 183 m; draft 12.2 m.

Type: Ship (hazmat cat A). MMSI: 249344000.

Date/timePositionNaut miles runAvg speedWind from/ knotsBaromVisibWave heightAir tempDewpointWater temp
2015-Apr-12 17:15N 35°58' W 005°36'912.7
2015-Apr-12 16:33N 36°00' W 005°26'9 9.4
2015-Apr-12 15:34N 36°07' W 005°18'0 0.4
2015-Apr-12 14:32N 36°08' W 005°18'0 0.1
2015-Apr-12 13:32N 36°08' W 005°18'4 4.0
2015-Apr-12 12:33N 36°05' W 005°21'0 0.4
2015-Apr-12 11:33N 36°04' W 005°21'8 8.4
2015-Apr-12 10:33N 36°05' W 005°11'37113.0
2015-Apr-11 06:05N 37°10' E 002°24'6712.0
2015-Apr-11 00:31N 37°19' E 003°47'9012.9
2015-Apr-10 17:30N 37°32' E 005°40'2613.5
2015-Apr-10 15:33N 37°35' E 006°13'1211.8
2015-Apr-10 14:32N 37°37' E 006°28'36412.2
2015-Apr-09 08:33N 36°33' E 013°57'1212.3
2015-Apr-09 07:33N 36°30' E 014°12'1212.3
2015-Apr-09 06:32N 36°26' E 014°27'  
2015-Apr-05 22:32N 40°53' E 028°37'1312.0
2015-Apr-05 21:27N 40°56' E 028°54'6 6.2
2015-Apr-05 20:34N 40°59' E 028°59'2010.2
2015-Apr-05 18:34N 41°19' E 029°07'1110.8
2015-Apr-05 17:33N 41°30' E 029°06'3 0.4
2015-Apr-05 11:05N 41°30' E 029°10'1 1.7
2015-Apr-05 10:11N 41°30' E 029°12'2 1.2
2015-Apr-05 08:23N 41°31' E 029°15'1 1.1
2015-Apr-05 07:20N 41°31' E 029°16'4 0.4
2015-Apr-04 20:31N 41°27' E 029°19'0 0.4
2015-Apr-04 19:31N 41°27' E 029°19'6 6.4
2015-Apr-04 18:33N 41°29' E 029°26'1010.4
2015-Apr-04 17:33N 41°33' E 029°39'36812.1
2015-Apr-03 11:07N 44°19' E 037°07'712.3
2015-Apr-03 10:33N 44°23' E 037°16'1211.9
2015-Apr-03 09:33N 44°28' E 037°30'1111.4
2015-Apr-03 08:33N 44°34' E 037°44'8 8.3
2015-Apr-03 07:33N 44°42' E 037°49'3 2.5
2015-Apr-03 06:31N 44°44' E 037°47'0 0.0
2015-Apr-03 05:31N 44°44' E 037°47'0 0.0
2015-Apr-03 04:31N 44°44' E 037°47'0 0.0
2015-Apr-03 03:31N 44°44' E 037°47'0 0.0
2015-Apr-03 02:31N 44°44' E 037°47'0 0.0
2015-Apr-03 01:28N 44°44' E 037°47'0 0.0
2015-Apr-03 00:31N 44°44' E 037°47'0 0.0
2015-Apr-02 23:31N 44°44' E 037°47'0 0.0
2015-Apr-02 22:31N 44°44' E 037°47'0 0.0
2015-Apr-02 21:31N 44°44' E 037°47'0 0.0
2015-Apr-02 20:31N 44°44' E 037°47'0 0.0
2015-Apr-02 19:34N 44°44' E 037°47'0 0.0
2015-Apr-02 17:31N 44°44' E 037°47'  

Dump ship's entire track history